Time;durP1;ratioP1;P1;durP2;ratioP2;P2;SDS_P1;SDS_P2;PMS_P1;PMS_P2;Temp;Humidity;BMP_temperature;BMP_pressure;BME280_temperature;BME280_humidity;BME280_pressure;Samples;Min_cycle;Max_cycle;Signal;HPM_P1;HPM_P2
2022/10/11 00:00:14;;;;;;;;;;;12.90;99.90;;;;;;5061495;28;19944;-72
2022/10/11 00:02:40;;;;;;;;;;;12.90;99.90;;;;;;5062590;28;19934;-72
2022/10/11 00:05:07;;;;;;;;;;;12.90;99.90;;;;;;5062960;28;19928;-71
2022/10/11 00:07:32;;;;;;;;;;;12.80;99.90;;;;;;5061265;28;20081;-71
2022/10/11 00:09:58;;;;;;;;;;;12.90;99.90;;;;;;5061433;28;20000;-72
2022/10/11 00:12:23;;;;;;;;;;;12.80;99.90;;;;;;5060980;28;20200;-72
2022/10/11 00:14:49;;;;;;;;;;;12.80;99.90;;;;;;5062264;28;19915;-71
2022/10/11 00:17:15;;;;;;;;;;;12.90;99.90;;;;;;5061931;28;19916;-72
2022/10/11 00:19:40;;;;;;;;;;;12.90;99.90;;;;;;5061885;28;19913;-72
2022/10/11 00:22:06;;;;;;;;;;;12.90;99.90;;;;;;5060949;28;20242;-72
2022/10/11 00:24:32;;;;;;;;;;;12.90;99.90;;;;;;5062170;28;20115;-71
2022/10/11 00:26:57;;;;;;;;;;;13.00;99.90;;;;;;5061851;28;19917;-72
2022/10/11 00:29:23;;;;;;;;;;;13.00;99.90;;;;;;5061400;28;19951;-71
2022/10/11 00:31:49;;;;;;;;;;;13.00;99.90;;;;;;5062733;28;19945;-71
2022/10/11 00:34:16;;;;;;;;;;;13.00;99.90;;;;;;5063768;28;19908;-71
2022/10/11 00:36:43;;;;;;;;;;;12.90;99.90;;;;;;5062489;28;20277;-71
2022/10/11 00:39:08;;;;;;;;;;;12.90;99.90;;;;;;5044388;28;19963;-72
2022/10/11 00:41:34;;;;;;;;;;;12.90;99.90;;;;;;5062865;28;19908;-71
2022/10/11 00:44:17;;;;;;;;;;;12.80;99.90;;;;;;5064234;28;19908;-72
2022/10/11 00:47:04;;;;;;;;;;;12.90;99.90;;;;;;5048526;28;19917;-71
2022/10/11 00:49:33;;;;;;;;;;;12.90;99.90;;;;;;5066925;28;19908;-71
2022/10/11 00:52:02;;;;;;;;;;;12.90;99.90;;;;;;5066738;28;19908;-71
2022/10/11 00:54:29;;;;;;;;;;;12.90;99.90;;;;;;5064640;28;19923;-71
2022/10/11 00:56:57;;;;;;;;;;;12.90;99.90;;;;;;5064207;28;20019;-72
2022/10/11 00:59:25;;;;;;;;;;;12.90;99.90;;;;;;5064001;28;20162;-72
2022/10/11 01:01:51;;;;;;;;;;;12.90;99.90;;;;;;5047662;28;20015;-72
2022/10/11 01:04:16;;;;;;;;;;;12.80;99.90;;;;;;5064427;28;20202;-72
2022/10/11 01:06:42;;;;;;;;;;;12.70;99.90;;;;;;5063955;28;19975;-71
2022/10/11 01:09:08;;;;;;;;;;;12.70;99.90;;;;;;5065311;28;19917;-72
2022/10/11 01:11:33;;;;;;;;;;;12.70;99.90;;;;;;5064153;28;19923;-71
2022/10/11 01:14:08;;;;;;;;;;;12.70;99.90;;;;;;5063260;28;19952;-71
2022/10/11 01:16:35;;;;;;;;;;;12.60;99.90;;;;;;5064865;28;19909;-72
2022/10/11 01:19:32;;;;;;;;;;;12.60;99.90;;;;;;5062975;28;19991;-72
2022/10/11 01:22:15;;;;;;;;;;;12.60;99.90;;;;;;5065025;28;19916;-71
2022/10/11 01:25:05;;;;;;;;;;;12.50;99.90;;;;;;5063234;28;19988;-71
2022/10/11 01:27:54;;;;;;;;;;;12.50;99.90;;;;;;5064603;28;19909;-71
2022/10/11 01:30:22;;;;;;;;;;;12.40;99.90;;;;;;5063552;28;19920;-71
2022/10/11 01:32:54;;;;;;;;;;;12.40;99.90;;;;;;5064869;28;19917;-72
2022/10/11 01:35:27;;;;;;;;;;;12.40;99.90;;;;;;5064117;28;19917;-71
2022/10/11 01:38:00;;;;;;;;;;;12.50;99.90;;;;;;5077437;22;19955;-69
2022/10/11 01:40:34;;;;;;;;;;;12.40;99.90;;;;;;5066093;28;19935;-69
2022/10/11 01:43:00;;;;;;;;;;;12.40;99.90;;;;;;5083587;28;19908;-69
2022/10/11 01:45:26;;;;;;;;;;;12.40;99.90;;;;;;5083543;28;19912;-69
2022/10/11 01:48:06;;;;;;;;;;;12.40;99.90;;;;;;5083306;28;19995;-69
2022/10/11 01:50:36;;;;;;;;;;;12.40;99.90;;;;;;5084649;28;19908;-69
2022/10/11 01:53:26;;;;;;;;;;;12.40;99.90;;;;;;5083769;28;19912;-69
2022/10/11 01:56:19;;;;;;;;;;;12.40;99.90;;;;;;5083633;28;19916;-69
2022/10/11 01:59:06;;;;;;;;;;;12.50;99.90;;;;;;5083414;28;19928;-69
2022/10/11 02:01:43;;;;;;;;;;;12.50;99.90;;;;;;5083386;28;19913;-69
2022/10/11 02:04:33;;;;;;;;;;;12.50;99.90;;;;;;5082730;28;19923;-70
2022/10/11 02:07:02;;;;;;;;;;;12.60;99.90;;;;;;5083990;28;19915;-69
2022/10/11 02:09:57;;;;;;;;;;;12.60;99.90;;;;;;5082611;28;19923;-69
2022/10/11 02:12:29;;;;;;;;;;;12.60;99.90;;;;;;5074637;28;20504;-69
2022/10/11 02:14:55;;;;;;;;;;;12.70;99.90;;;;;;5082442;28;19916;-69
2022/10/11 02:17:22;;;;;;;;;;;12.70;99.90;;;;;;5065598;28;20111;-70
2022/10/11 02:19:49;;;;;;;;;;;12.70;99.90;;;;;;5082786;28;19908;-70
2022/10/11 02:22:23;;;;;;;;;;;12.60;99.90;;;;;;5083402;28;19916;-69
2022/10/11 02:24:50;;;;;;;;;;;12.60;99.90;;;;;;5066906;28;19915;-70
2022/10/11 02:27:17;;;;;;;;;;;12.60;99.90;;;;;;5081451;28;19915;-70
2022/10/11 02:29:43;;;;;;;;;;;12.70;99.90;;;;;;5066269;28;19924;-69
2022/10/11 02:32:08;;;;;;;;;;;12.70;99.90;;;;;;5082687;28;20198;-69
2022/10/11 02:34:45;;;;;;;;;;;12.70;99.90;;;;;;5083668;28;19916;-70
2022/10/11 02:37:15;;;;;;;;;;;12.70;99.90;;;;;;5066325;28;20252;-69
2022/10/11 02:39:47;;;;;;;;;;;12.70;99.90;;;;;;5082281;28;19954;-69
2022/10/11 02:42:16;;;;;;;;;;;12.80;99.90;;;;;;5066383;28;19951;-69
2022/10/11 02:44:43;;;;;;;;;;;12.70;99.90;;;;;;5083523;28;20107;-69
2022/10/11 02:47:09;;;;;;;;;;;12.70;99.90;;;;;;5065513;28;19947;-69
2022/10/11 02:49:35;;;;;;;;;;;12.70;99.90;;;;;;5082205;28;19908;-69
2022/10/11 02:52:01;;;;;;;;;;;12.70;99.90;;;;;;5065604;28;19908;-70
2022/10/11 02:54:27;;;;;;;;;;;12.60;99.90;;;;;;5065403;28;19914;-69
2022/10/11 02:56:53;;;;;;;;;;;12.60;99.90;;;;;;5081674;28;19948;-69
2022/10/11 02:59:18;;;;;;;;;;;12.50;99.90;;;;;;5083207;28;19909;-69
2022/10/11 03:01:44;;;;;;;;;;;12.50;99.90;;;;;;5083141;28;20219;-69
2022/10/11 03:04:10;;;;;;;;;;;12.50;99.90;;;;;;5083083;28;19912;-69
2022/10/11 03:06:35;;;;;;;;;;;12.40;99.90;;;;;;5082792;28;19908;-69
2022/10/11 03:09:01;;;;;;;;;;;12.40;99.90;;;;;;5082082;28;20199;-70
2022/10/11 03:11:26;;;;;;;;;;;12.40;99.90;;;;;;5082961;28;20111;-70
2022/10/11 03:13:52;;;;;;;;;;;12.40;99.90;;;;;;5082957;28;19923;-70
2022/10/11 03:16:18;;;;;;;;;;;12.40;99.90;;;;;;5082592;28;19916;-70
2022/10/11 03:18:43;;;;;;;;;;;12.50;99.90;;;;;;5082758;28;19908;-70
2022/10/11 03:21:09;;;;;;;;;;;12.50;99.90;;;;;;5082285;28;19920;-69
2022/10/11 03:23:35;;;;;;;;;;;12.50;99.90;;;;;;5082519;28;19920;-69
2022/10/11 03:26:00;;;;;;;;;;;12.60;99.90;;;;;;5082589;28;19916;-69
2022/10/11 03:28:26;;;;;;;;;;;12.60;99.90;;;;;;5082594;28;19944;-69
2022/10/11 03:30:52;;;;;;;;;;;12.60;99.90;;;;;;5082739;28;19908;-69
2022/10/11 03:33:18;;;;;;;;;;;12.70;99.90;;;;;;5082602;28;19923;-69
2022/10/11 03:35:44;;;;;;;;;;;12.70;99.90;;;;;;5082550;28;19923;-69
2022/10/11 03:38:15;;;;;;;;;;;12.60;99.90;;;;;;5079890;28;20108;-69
2022/10/11 03:40:41;;;;;;;;;;;12.70;99.90;;;;;;5081476;28;19913;-70
2022/10/11 03:43:07;;;;;;;;;;;12.70;99.90;;;;;;5081499;28;19916;-70
2022/10/11 03:45:32;;;;;;;;;;;12.70;99.90;;;;;;5082413;28;19916;-69
2022/10/11 03:47:58;;;;;;;;;;;12.70;99.90;;;;;;5082016;28;19922;-69
2022/10/11 03:50:23;;;;;;;;;;;12.70;99.90;;;;;;5082316;28;19908;-70
2022/10/11 03:52:49;;;;;;;;;;;12.70;99.90;;;;;;5081896;28;19915;-69
2022/10/11 03:55:15;;;;;;;;;;;12.80;99.90;;;;;;5082208;28;19915;-70
2022/10/11 03:57:40;;;;;;;;;;;12.80;99.90;;;;;;5082096;28;19909;-70
2022/10/11 04:00:07;;;;;;;;;;;12.90;99.90;;;;;;5081656;28;19936;-70
2022/10/11 04:02:32;;;;;;;;;;;12.90;99.90;;;;;;5082125;28;19917;-70
2022/10/11 04:04:58;;;;;;;;;;;12.90;99.90;;;;;;5082171;28;20250;-70
2022/10/11 04:07:23;;;;;;;;;;;12.90;99.90;;;;;;5081992;28;19942;-70
2022/10/11 04:09:49;;;;;;;;;;;12.90;99.90;;;;;;5082008;28;19916;-69
2022/10/11 04:12:15;;;;;;;;;;;12.90;99.90;;;;;;5081739;28;19947;-70
2022/10/11 04:14:41;;;;;;;;;;;12.90;99.90;;;;;;5082178;28;19916;-70
2022/10/11 04:17:06;;;;;;;;;;;12.80;99.90;;;;;;5079114;28;19967;-70
2022/10/11 04:19:32;;;;;;;;;;;12.80;99.90;;;;;;5079434;28;19947;-70
2022/10/11 04:21:58;;;;;;;;;;;12.80;99.90;;;;;;5085925;28;19942;-70
2022/10/11 04:24:23;;;;;;;;;;;12.80;99.90;;;;;;5079990;28;19912;-70
2022/10/11 04:26:49;;;;;;;;;;;12.90;99.90;;;;;;5083868;28;20218;-70
2022/10/11 04:29:14;;;;;;;;;;;12.90;99.90;;;;;;5085154;28;20173;-70
2022/10/11 04:31:40;;;;;;;;;;;12.90;99.90;;;;;;5085962;28;19909;-69
2022/10/11 04:34:06;;;;;;;;;;;12.90;99.90;;;;;;5085938;28;19920;-69
2022/10/11 04:36:32;;;;;;;;;;;12.90;99.90;;;;;;5085741;28;19916;-70
2022/10/11 04:39:00;;;;;;;;;;;12.90;99.90;;;;;;5084766;28;19928;-70
2022/10/11 04:41:26;;;;;;;;;;;12.90;99.90;;;;;;5085794;28;19919;-69
2022/10/11 04:43:51;;;;;;;;;;;13.00;99.90;;;;;;5084881;28;19975;-70
2022/10/11 04:46:17;;;;;;;;;;;13.00;99.90;;;;;;5085497;28;19921;-69
2022/10/11 04:48:43;;;;;;;;;;;13.00;99.90;;;;;;5084800;28;19920;-70
2022/10/11 04:51:08;;;;;;;;;;;13.00;99.90;;;;;;5085673;28;19908;-70
2022/10/11 04:53:34;;;;;;;;;;;13.00;99.90;;;;;;5085631;28;19970;-70
2022/10/11 04:56:02;;;;;;;;;;;13.00;99.90;;;;;;5084540;28;19914;-70
2022/10/11 04:58:28;;;;;;;;;;;13.00;99.90;;;;;;5085312;28;20154;-70
2022/10/11 05:00:54;;;;;;;;;;;13.00;99.90;;;;;;5084477;28;19942;-70
2022/10/11 05:03:19;;;;;;;;;;;13.00;99.90;;;;;;5084136;28;19908;-69
2022/10/11 05:05:45;;;;;;;;;;;13.10;99.90;;;;;;5084854;28;19920;-70
2022/10/11 05:08:11;;;;;;;;;;;13.10;99.90;;;;;;5084588;28;19962;-69
2022/10/11 05:10:36;;;;;;;;;;;13.10;99.90;;;;;;5084759;28;19924;-69
2022/10/11 05:13:02;;;;;;;;;;;13.10;99.90;;;;;;5084897;28;19908;-70
2022/10/11 05:15:28;;;;;;;;;;;13.10;99.90;;;;;;5084673;28;19917;-69
2022/10/11 05:17:53;;;;;;;;;;;13.10;99.90;;;;;;5084472;28;19912;-70
2022/10/11 05:20:19;;;;;;;;;;;13.10;99.90;;;;;;5085077;28;19908;-70
2022/10/11 05:22:44;;;;;;;;;;;13.10;99.90;;;;;;5082439;28;19920;-73
2022/10/11 05:25:10;;;;;;;;;;;13.10;99.90;;;;;;5077914;28;19912;-70
2022/10/11 05:27:36;;;;;;;;;;;13.10;99.90;;;;;;5078873;28;19916;-70
2022/10/11 05:30:02;;;;;;;;;;;13.10;99.90;;;;;;5075967;28;19912;-70
2022/10/11 05:32:28;;;;;;;;;;;13.10;99.90;;;;;;5074949;28;19914;-70
2022/10/11 05:34:54;;;;;;;;;;;13.10;99.90;;;;;;5084633;28;20168;-70
2022/10/11 05:37:19;;;;;;;;;;;13.10;99.90;;;;;;5082977;28;20138;-70
2022/10/11 05:39:45;;;;;;;;;;;13.00;99.90;;;;;;5084293;28;20150;-71
2022/10/11 05:42:11;;;;;;;;;;;13.00;99.90;;;;;;5082433;28;19920;-71
2022/10/11 05:44:36;;;;;;;;;;;13.00;99.90;;;;;;5083195;28;19980;-70
2022/10/11 05:47:02;;;;;;;;;;;13.00;99.90;;;;;;5083608;28;19923;-71
2022/10/11 05:49:28;;;;;;;;;;;13.10;99.90;;;;;;5084042;28;19924;-71
2022/10/11 05:51:53;;;;;;;;;;;13.10;99.90;;;;;;5084078;28;19916;-71
2022/10/11 05:54:19;;;;;;;;;;;13.10;99.90;;;;;;5083637;28;19919;-71
2022/10/11 05:56:45;;;;;;;;;;;13.00;99.90;;;;;;5083713;28;19915;-70
2022/10/11 05:59:10;;;;;;;;;;;13.10;99.90;;;;;;5083689;28;19923;-71
2022/10/11 06:01:36;;;;;;;;;;;13.10;99.90;;;;;;5084118;28;20130;-71
2022/10/11 06:04:03;;;;;;;;;;;13.10;99.90;;;;;;5084271;28;19922;-71
2022/10/11 06:06:29;;;;;;;;;;;13.10;99.90;;;;;;5083977;28;19915;-71
2022/10/11 06:08:55;;;;;;;;;;;13.10;99.90;;;;;;5083856;28;19909;-71
2022/10/11 06:11:24;;;;;;;;;;;13.10;99.90;;;;;;5084160;28;20081;-71
2022/10/11 06:13:54;;;;;;;;;;;13.10;99.90;;;;;;5082801;28;19908;-71
2022/10/11 06:16:20;;;;;;;;;;;13.20;99.90;;;;;;5082748;28;19909;-71
2022/10/11 06:18:45;;;;;;;;;;;13.20;99.90;;;;;;5083950;28;19915;-71
2022/10/11 06:21:12;;;;;;;;;;;13.20;99.90;;;;;;5082852;28;19935;-71
2022/10/11 06:23:38;;;;;;;;;;;13.30;99.90;;;;;;5083819;28;19983;-71
2022/10/11 06:26:05;;;;;;;;;;;13.30;99.90;;;;;;5082524;28;19920;-71
2022/10/11 06:28:31;;;;;;;;;;;13.30;99.90;;;;;;5081311;28;19936;-71
2022/10/11 06:30:57;;;;;;;;;;;13.20;99.90;;;;;;5083187;28;20199;-71
2022/10/11 06:33:23;;;;;;;;;;;13.20;99.90;;;;;;5083779;28;19916;-71
2022/10/11 06:35:49;;;;;;;;;;;13.30;99.90;;;;;;5082420;28;19908;-71
2022/10/11 06:38:14;;;;;;;;;;;13.30;99.90;;;;;;5083176;28;19919;-71
2022/10/11 06:40:40;;;;;;;;;;;13.20;99.90;;;;;;5082333;28;19984;-71
2022/10/11 06:43:06;;;;;;;;;;;13.30;99.90;;;;;;5081585;28;19909;-71
2022/10/11 06:45:31;;;;;;;;;;;13.30;99.90;;;;;;5083314;28;19976;-71
2022/10/11 06:47:57;;;;;;;;;;;13.30;99.90;;;;;;5082308;28;19917;-71
2022/10/11 06:50:23;;;;;;;;;;;13.30;99.90;;;;;;5082016;28;20261;-71
2022/10/11 06:52:48;;;;;;;;;;;13.30;99.90;;;;;;5082130;28;20341;-71
2022/10/11 06:55:14;;;;;;;;;;;13.30;99.90;;;;;;5083222;28;19980;-71
2022/10/11 06:57:40;;;;;;;;;;;13.30;99.90;;;;;;5082698;28;19917;-71
2022/10/11 07:00:06;;;;;;;;;;;13.40;99.90;;;;;;5082625;28;20064;-71
2022/10/11 07:02:32;;;;;;;;;;;13.40;99.90;;;;;;5082881;28;19913;-70
2022/10/11 07:04:57;;;;;;;;;;;13.40;99.90;;;;;;5082841;28;19928;-71
2022/10/11 07:07:23;;;;;;;;;;;13.40;99.90;;;;;;5082906;28;19917;-71
2022/10/11 07:09:48;;;;;;;;;;;13.30;99.90;;;;;;5082051;28;19954;-71
2022/10/11 07:12:15;;;;;;;;;;;13.40;99.90;;;;;;5082957;28;19909;-69
2022/10/11 07:14:40;;;;;;;;;;;13.40;99.90;;;;;;5082016;28;19910;-71
2022/10/11 07:17:06;;;;;;;;;;;13.40;99.90;;;;;;5082563;28;20034;-71
2022/10/11 07:19:51;;;;;;;;;;;13.40;99.90;;;;;;5084114;28;20368;-71
2022/10/11 07:22:17;;;;;;;;;;;13.30;99.90;;;;;;5082473;28;19912;-71
2022/10/11 07:24:43;;;;;;;;;;;13.30;99.90;;;;;;5082197;28;19922;-71
2022/10/11 07:27:08;;;;;;;;;;;13.30;99.90;;;;;;5082188;28;19909;-71
2022/10/11 07:29:34;;;;;;;;;;;13.40;99.90;;;;;;5081882;28;19954;-71
2022/10/11 07:32:00;;;;;;;;;;;13.40;99.90;;;;;;5082563;28;19917;-71
2022/10/11 07:34:25;;;;;;;;;;;13.40;99.90;;;;;;5082748;28;20209;-71
2022/10/11 07:36:51;;;;;;;;;;;13.40;99.90;;;;;;5081361;28;19908;-71
2022/10/11 07:39:17;;;;;;;;;;;13.40;99.90;;;;;;5081418;28;19920;-70
2022/10/11 07:41:42;;;;;;;;;;;13.40;99.90;;;;;;5081962;28;19922;-68
2022/10/11 07:44:08;;;;;;;;;;;13.50;99.90;;;;;;5082503;28;19916;-68
2022/10/11 07:46:34;;;;;;;;;;;13.50;99.90;;;;;;5082303;28;20259;-68
2022/10/11 07:48:59;;;;;;;;;;;13.60;99.90;;;;;;5081496;28;20111;-69
2022/10/11 07:51:25;;;;;;;;;;;13.60;99.90;;;;;;5081279;28;19908;-71
2022/10/11 07:53:55;;;;;;;;;;;13.60;99.90;;;;;;5080855;28;19909;-71
2022/10/11 07:56:25;;;;;;;;;;;13.70;99.90;;;;;;5082263;28;19970;-71
2022/10/11 07:58:52;;;;;;;;;;;13.70;99.90;;;;;;5081446;28;19927;-71
2022/10/11 08:01:18;;;;;;;;;;;13.70;99.90;;;;;;5082135;28;19916;-70
2022/10/11 08:03:43;;;;;;;;;;;13.70;99.90;;;;;;5080679;28;19916;-71
2022/10/11 08:06:10;;;;;;;;;;;13.70;99.90;;;;;;5082224;28;20204;-71
2022/10/11 08:08:36;;;;;;;;;;;13.70;99.90;;;;;;5080851;28;19908;-70
2022/10/11 08:11:02;;;;;;;;;;;13.80;99.90;;;;;;5081749;28;19916;-70
2022/10/11 08:13:27;;;;;;;;;;;13.80;99.90;;;;;;5081961;28;19916;-70
2022/10/11 08:15:53;;;;;;;;;;;13.90;99.90;;;;;;5081805;28;19979;-70
2022/10/11 08:18:19;;;;;;;;;;;14.00;99.90;;;;;;5081954;28;19908;-70
2022/10/11 08:20:44;;;;;;;;;;;14.10;99.90;;;;;;5081743;28;20106;-70
2022/10/11 08:23:10;;;;;;;;;;;14.20;99.90;;;;;;5081601;28;20038;-70
2022/10/11 08:25:39;;;;;;;;;;;14.20;99.90;;;;;;5081957;28;19909;-70
2022/10/11 08:28:05;;;;;;;;;;;14.40;99.90;;;;;;5081374;28;19923;-70
2022/10/11 08:30:32;;;;;;;;;;;14.40;99.90;;;;;;5081884;28;19908;-70
2022/10/11 08:32:57;;;;;;;;;;;14.50;99.90;;;;;;5081622;28;19977;-70
2022/10/11 08:35:23;;;;;;;;;;;14.60;99.90;;;;;;5081804;28;19916;-70
2022/10/11 08:37:49;;;;;;;;;;;14.70;99.90;;;;;;5081654;28;19921;-70
2022/10/11 08:40:16;;;;;;;;;;;14.80;99.90;;;;;;5080901;28;19935;-70
2022/10/11 08:42:46;;;;;;;;;;;14.90;99.90;;;;;;5078270;28;19908;-70
2022/10/11 08:45:37;;;;;;;;;;;15.00;99.90;;;;;;5052255;28;19908;-70
2022/10/11 08:48:37;;;;;;;;;;;15.10;99.90;;;;;;5061572;28;19923;-70
2022/10/11 08:51:17;;;;;;;;;;;15.10;99.90;;;;;;5060869;28;19924;-70
2022/10/11 08:54:01;;;;;;;;;;;15.20;99.90;;;;;;5076362;28;20211;-70
2022/10/11 08:56:27;;;;;;;;;;;15.20;99.90;;;;;;5081632;28;19909;-70
2022/10/11 08:58:56;;;;;;;;;;;15.10;99.90;;;;;;5080923;28;20126;-70
2022/10/11 09:01:24;;;;;;;;;;;15.10;99.90;;;;;;5080727;28;20242;-70
2022/10/11 09:03:50;;;;;;;;;;;15.20;99.90;;;;;;5079988;28;19916;-70
2022/10/11 09:06:39;;;;;;;;;;;15.30;99.90;;;;;;5083638;28;19908;-70
2022/10/11 09:09:23;;;;;;;;;;;15.40;99.90;;;;;;5084646;28;19908;-70
2022/10/11 09:12:10;;;;;;;;;;;15.50;99.90;;;;;;5084627;28;19950;-70
2022/10/11 09:14:36;;;;;;;;;;;15.70;99.90;;;;;;5082982;28;20234;-70
2022/10/11 09:17:12;;;;;;;;;;;15.80;99.90;;;;;;5084783;28;19908;-70
2022/10/11 09:20:03;;;;;;;;;;;15.90;99.90;;;;;;5082938;28;20139;-69
2022/10/11 09:22:48;;;;;;;;;;;16.10;99.90;;;;;;5082697;28;19908;-71
2022/10/11 09:25:36;;;;;;;;;;;16.20;99.90;;;;;;5081510;28;19954;-70
2022/10/11 09:28:27;;;;;;;;;;;16.20;99.90;;;;;;5082891;28;19916;-70
2022/10/11 09:30:54;;;;;;;;;;;16.30;99.90;;;;;;5081524;28;19917;-70
2022/10/11 09:33:31;;;;;;;;;;;16.30;99.90;;;;;;5083902;28;19931;-70
2022/10/11 09:35:56;;;;;;;;;;;16.30;99.90;;;;;;5083107;28;20917;-70
2022/10/11 09:38:30;;;;;;;;;;;16.30;99.90;;;;;;5080594;28;19921;-70
2022/10/11 09:41:21;;;;;;;;;;;16.40;99.90;;;;;;5067257;28;19915;-70
2022/10/11 09:43:48;;;;;;;;;;;16.40;99.90;;;;;;5083982;28;20252;-70
2022/10/11 09:46:25;;;;;;;;;;;16.40;99.90;;;;;;5083417;28;20119;-70
2022/10/11 09:48:53;;;;;;;;;;;16.50;99.90;;;;;;5083684;28;19944;-70
2022/10/11 09:51:20;;;;;;;;;;;16.50;99.90;;;;;;5066855;28;19960;-71
2022/10/11 09:53:49;;;;;;;;;;;16.50;99.90;;;;;;5080178;28;19931;-71
2022/10/11 09:56:15;;;;;;;;;;;16.60;99.90;;;;;;5083703;28;19912;-71
2022/10/11 09:58:40;;;;;;;;;;;16.70;99.90;;;;;;5082842;28;19983;-71
2022/10/11 10:01:07;;;;;;;;;;;16.70;99.90;;;;;;5082067;28;19912;-70
2022/10/11 10:03:41;;;;;;;;;;;16.70;99.90;;;;;;5084008;28;20238;-71
2022/10/11 10:06:15;;;;;;;;;;;16.80;99.90;;;;;;5081706;28;20337;-70
2022/10/11 10:08:46;;;;;;;;;;;16.80;99.90;;;;;;5083985;28;19923;-70
2022/10/11 10:11:11;;;;;;;;;;;16.90;99.90;;;;;;5082254;28;19916;-71
2022/10/11 10:13:40;;;;;;;;;;;17.00;99.90;;;;;;5084070;28;20182;-70
2022/10/11 10:16:10;;;;;;;;;;;17.00;99.90;;;;;;5077487;28;20115;-79
2022/10/11 10:18:47;;;;;;;;;;;17.00;99.90;;;;;;5046279;28;20114;-75
2022/10/11 10:21:13;;;;;;;;;;;17.10;99.90;;;;;;5082756;28;19924;-75
2022/10/11 10:23:39;;;;;;;;;;;17.10;99.90;;;;;;5065984;28;19908;-75
2022/10/11 10:26:08;;;;;;;;;;;17.10;99.90;;;;;;5065841;28;19912;-72
2022/10/11 10:28:34;;;;;;;;;;;17.10;99.90;;;;;;5082892;28;19917;-72
2022/10/11 10:31:00;;;;;;;;;;;17.10;99.90;;;;;;5065753;28;19979;-72
2022/10/11 10:33:30;;;;;;;;;;;17.10;99.90;;;;;;5082911;28;19947;-72
2022/10/11 10:35:59;;;;;;;;;;;17.10;99.90;;;;;;5065996;28;19949;-71
2022/10/11 10:38:33;;;;;;;;;;;17.10;99.90;;;;;;5081368;28;20203;-72
2022/10/11 10:41:08;;;;;;;;;;;17.20;99.90;;;;;;5065680;28;19923;-72
2022/10/11 10:43:34;;;;;;;;;;;17.20;99.90;;;;;;5065350;28;19946;-72
2022/10/11 10:46:06;;;;;;;;;;;17.10;99.90;;;;;;5082276;28;20018;-72
2022/10/11 10:48:49;;;;;;;;;;;17.00;99.90;;;;;;5083538;28;19909;-72
2022/10/11 10:51:46;;;;;;;;;;;17.00;99.90;;;;;;5083097;28;19915;-72
2022/10/11 10:54:20;;;;;;;;;;;16.90;99.90;;;;;;5081928;28;19908;-72
2022/10/11 10:56:57;;;;;;;;;;;16.80;99.90;;;;;;5081567;28;19909;-72
2022/10/11 10:59:53;;;;;;;;;;;16.80;99.90;;;;;;5065376;28;20251;-72
2022/10/11 11:02:28;;;;;;;;;;;16.80;99.90;;;;;;5084700;28;19908;-72
2022/10/11 11:05:29;;;;;;;;;;;16.90;99.90;;;;;;5083727;28;20111;-72
2022/10/11 11:07:57;;;;;;;;;;;16.90;99.90;;;;;;5068950;28;19909;-72
2022/10/11 11:10:32;;;;;;;;;;;17.00;99.90;;;;;;5083156;28;20194;-72
2022/10/11 11:13:22;;;;;;;;;;;17.20;99.90;;;;;;5082410;28;19923;-71
2022/10/11 11:16:28;;;;;;;;;;;17.30;99.90;;;;;;5083141;28;19916;-71
2022/10/11 11:19:03;;;;;;;;;;;17.50;99.90;;;;;;5040178;28;20112;-72
2022/10/11 11:21:52;;;;;;;;;;;17.70;99.90;;;;;;5057675;28;19980;-71
2022/10/11 11:24:39;;;;;;;;;;;17.90;99.90;;;;;;5071531;28;19920;-71
2022/10/11 11:27:14;;;;;;;;;;;18.20;99.90;;;;;;5082893;28;19909;-71
2022/10/11 11:29:52;;;;;;;;;;;18.40;99.90;;;;;;5080946;28;19975;-72
2022/10/11 11:32:33;;;;;;;;;;;18.50;99.90;;;;;;5082142;28;19944;-72
2022/10/11 11:35:00;;;;;;;;;;;18.50;99.90;;;;;;5081912;28;19959;-72
2022/10/11 11:37:29;;;;;;;;;;;18.50;99.90;;;;;;5081161;28;19917;-71
2022/10/11 11:39:58;;;;;;;;;;;18.50;99.90;;;;;;5080566;28;20220;-72
2022/10/11 11:42:37;;;;;;;;;;;18.40;99.90;;;;;;5081360;28;19920;-72
2022/10/11 11:45:11;;;;;;;;;;;18.40;99.90;;;;;;5080994;28;20029;-72
2022/10/11 11:47:38;;;;;;;;;;;18.40;99.90;;;;;;5065120;28;19954;-72
2022/10/11 11:50:21;;;;;;;;;;;18.30;99.90;;;;;;5080940;28;19985;-72
2022/10/11 11:52:57;;;;;;;;;;;18.30;99.90;;;;;;5082221;28;19923;-72
2022/10/11 11:55:41;;;;;;;;;;;18.40;99.90;;;;;;5080601;28;19908;-71
2022/10/11 11:58:35;;;;;;;;;;;18.50;99.90;;;;;;5082206;28;19913;-72
2022/10/11 12:01:36;;;;;;;;;;;18.80;99.90;;;;;;5081692;28;19947;-72
2022/10/11 12:04:08;;;;;;;;;;;19.30;99.90;;;;;;5080814;28;19909;-72
2022/10/11 12:06:34;;;;;;;;;;;19.80;99.90;;;;;;5064316;28;19912;-72
2022/10/11 12:09:20;;;;;;;;;;;20.00;99.90;;;;;;5080886;28;19908;-72
2022/10/11 12:11:49;;;;;;;;;;;20.00;99.90;;;;;;5081720;28;19909;-72
2022/10/11 12:14:27;;;;;;;;;;;20.10;99.90;;;;;;5064393;28;20159;-71
2022/10/11 12:17:13;;;;;;;;;;;20.20;99.90;;;;;;5081497;28;19916;-72
2022/10/11 12:19:40;;;;;;;;;;;20.20;99.90;;;;;;5080546;28;19913;-72
2022/10/11 12:22:25;;;;;;;;;;;20.40;99.90;;;;;;5064104;28;19916;-72
2022/10/11 12:24:55;;;;;;;;;;;20.40;99.90;;;;;;5081814;28;19954;-72
2022/10/11 12:27:39;;;;;;;;;;;20.40;99.90;;;;;;5081183;28;19912;-72
2022/10/11 12:30:43;;;;;;;;;;;20.40;99.90;;;;;;5081773;28;19908;-72
2022/10/11 12:33:23;;;;;;;;;;;20.70;99.90;;;;;;5081441;28;19916;-72
2022/10/11 12:35:51;;;;;;;;;;;21.10;99.90;;;;;;5064946;28;19909;-72
2022/10/11 12:38:20;;;;;;;;;;;21.30;99.90;;;;;;5082105;28;19912;-72
2022/10/11 12:40:46;;;;;;;;;;;21.40;99.90;;;;;;5082479;28;20153;-72
2022/10/11 12:43:15;;;;;;;;;;;21.40;99.90;;;;;;5084345;28;19931;-71
2022/10/11 12:45:46;;;;;;;;;;;21.00;99.90;;;;;;5085403;28;19980;-71
2022/10/11 12:48:18;;;;;;;;;;;20.80;99.90;;;;;;5068744;28;20022;-72
2022/10/11 12:50:47;;;;;;;;;;;20.50;99.90;;;;;;5085057;28;19908;-72
2022/10/11 12:53:27;;;;;;;;;;;20.30;99.90;;;;;;5085776;28;19987;-72
2022/10/11 12:55:59;;;;;;;;;;;20.10;99.90;;;;;;5083708;28;19984;-71
2022/10/11 12:58:28;;;;;;;;;;;19.90;99.90;;;;;;5082514;28;19908;-72
2022/10/11 13:00:54;;;;;;;;;;;19.80;99.90;;;;;;5084152;28;19916;-71
2022/10/11 13:03:36;;;;;;;;;;;20.10;99.90;;;;;;5085091;28;20173;-72
2022/10/11 13:06:19;;;;;;;;;;;21.10;99.90;;;;;;5058353;28;19916;-72
2022/10/11 13:08:48;;;;;;;;;;;22.90;99.90;;;;;;5074931;28;19912;-71
2022/10/11 13:11:17;;;;;;;;;;;24.80;99.90;;;;;;5082258;28;20226;-73
2022/10/11 13:13:47;;;;;;;;;;;26.40;99.90;;;;;;5083973;28;19923;-73
2022/10/11 13:16:26;;;;;;;;;;;27.60;99.90;;;;;;5082797;28;19948;-72
2022/10/11 13:18:57;;;;;;;;;;;28.70;97.80;;;;;;5084021;28;20245;-72
2022/10/11 13:21:31;;;;;;;;;;;29.80;93.70;;;;;;5084896;28;19916;-72
2022/10/11 13:23:59;;;;;;;;;;;30.70;88.20;;;;;;5080617;28;19908;-72
2022/10/11 13:26:26;;;;;;;;;;;31.30;80.30;;;;;;5067681;28;20034;-72
2022/10/11 13:28:51;;;;;;;;;;;31.00;76.80;;;;;;5066968;28;19936;-72
2022/10/11 13:31:17;;;;;;;;;;;30.20;78.70;;;;;;5083940;28;19909;-72
2022/10/11 13:33:42;;;;;;;;;;;28.90;80.10;;;;;;5072736;28;19917;-72
2022/10/11 13:36:13;;;;;;;;;;;28.20;88.80;;;;;;5063394;28;19995;-72
2022/10/11 13:38:39;;;;;;;;;;;27.70;89.40;;;;;;5078051;28;19959;-72
2022/10/11 13:41:07;;;;;;;;;;;27.30;91.50;;;;;;5070274;28;19909;-72
2022/10/11 13:43:32;;;;;;;;;;;26.40;92.90;;;;;;5074784;28;19978;-72
2022/10/11 13:45:59;;;;;;;;;;;25.70;97.90;;;;;;5070521;28;19920;-72
2022/10/11 13:48:24;;;;;;;;;;;25.30;99.90;;;;;;5065877;28;19908;-72
2022/10/11 13:51:06;;;;;;;;;;;24.90;99.90;;;;;;5066666;28;19908;-72
2022/10/11 13:53:32;;;;;;;;;;;24.80;99.90;;;;;;5083287;28;19930;-73
2022/10/11 13:55:58;;;;;;;;;;;24.90;99.90;;;;;;5084157;28;19948;-71
2022/10/11 13:58:39;;;;;;;;;;;25.30;99.90;;;;;;5075317;28;20234;-71
2022/10/11 14:01:15;;;;;;;;;;;26.00;98.30;;;;;;5067347;28;19954;-72
2022/10/11 14:03:47;;;;;;;;;;;26.80;93.60;;;;;;5067201;28;19909;-72
2022/10/11 14:06:12;;;;;;;;;;;27.50;89.70;;;;;;5083975;28;19916;-72
2022/10/11 14:08:41;;;;;;;;;;;27.90;85.70;;;;;;5082267;28;19916;-72
2022/10/11 14:11:07;;;;;;;;;;;28.00;85.70;;;;;;5084184;28;19912;-72
2022/10/11 14:13:43;;;;;;;;;;;28.10;81.50;;;;;;5083354;28;20019;-72
2022/10/11 14:16:10;;;;;;;;;;;28.40;80.20;;;;;;5083386;28;19924;-72
2022/10/11 14:18:58;;;;;;;;;;;28.60;78.00;;;;;;5081710;28;20134;-72
2022/10/11 14:21:31;;;;;;;;;;;28.60;76.40;;;;;;5083104;28;20022;-73
2022/10/11 14:23:59;;;;;;;;;;;27.70;80.20;;;;;;5083233;28;19917;-72
2022/10/11 14:26:26;;;;;;;;;;;26.60;87.40;;;;;;5083776;28;20341;-73
2022/10/11 14:28:56;;;;;;;;;;;25.50;93.20;;;;;;5065135;28;19915;-72
2022/10/11 14:31:22;;;;;;;;;;;24.60;97.80;;;;;;5065664;28;19959;-72
2022/10/11 14:33:48;;;;;;;;;;;23.80;99.90;;;;;;5082105;28;19916;-72